sensor_id;sensor_type;location;lat;lon;timestamp;P1;durP1;ratioP1;P2;durP2;ratioP2
18677;SDS011;9469;51.114;13.914;2024-02-21T00:02:20;14.30;;;3.93;;
18677;SDS011;9469;51.114;13.914;2024-02-21T00:07:25;14.93;;;4.20;;
18677;SDS011;9469;51.114;13.914;2024-02-21T00:12:30;12.50;;;4.23;;
18677;SDS011;9469;51.114;13.914;2024-02-21T00:17:38;10.80;;;3.77;;
18677;SDS011;9469;51.114;13.914;2024-02-21T00:22:43;15.57;;;4.93;;
18677;SDS011;9469;51.114;13.914;2024-02-21T00:27:48;16.37;;;5.00;;
18677;SDS011;9469;51.114;13.914;2024-02-21T00:32:58;14.10;;;4.70;;
18677;SDS011;9469;51.114;13.914;2024-02-21T00:38:03;16.80;;;4.07;;
18677;SDS011;9469;51.114;13.914;2024-02-21T00:43:08;12.63;;;3.87;;
18677;SDS011;9469;51.114;13.914;2024-02-21T00:48:16;12.97;;;5.00;;
18677;SDS011;9469;51.114;13.914;2024-02-21T00:53:22;13.20;;;4.30;;
18677;SDS011;9469;51.114;13.914;2024-02-21T00:58:29;12.40;;;4.10;;
18677;SDS011;9469;51.114;13.914;2024-02-21T01:03:38;14.00;;;4.23;;
18677;SDS011;9469;51.114;13.914;2024-02-21T01:08:45;13.40;;;3.87;;
18677;SDS011;9469;51.114;13.914;2024-02-21T01:13:52;11.67;;;3.50;;
18677;SDS011;9469;51.114;13.914;2024-02-21T01:19:00;10.87;;;3.77;;
18677;SDS011;9469;51.114;13.914;2024-02-21T01:24:05;12.83;;;4.60;;
18677;SDS011;9469;51.114;13.914;2024-02-21T01:29:10;13.97;;;3.97;;
18677;SDS011;9469;51.114;13.914;2024-02-21T01:34:20;12.13;;;3.97;;
18677;SDS011;9469;51.114;13.914;2024-02-21T01:39:31;18.27;;;4.33;;
18677;SDS011;9469;51.114;13.914;2024-02-21T01:44:36;17.60;;;4.33;;
18677;SDS011;9469;51.114;13.914;2024-02-21T01:49:46;7.93;;;3.60;;
18677;SDS011;9469;51.114;13.914;2024-02-21T01:54:52;18.90;;;5.23;;
18677;SDS011;9469;51.114;13.914;2024-02-21T01:59:57;13.30;;;4.20;;
18677;SDS011;9469;51.114;13.914;2024-02-21T02:05:14;13.77;;;4.47;;
18677;SDS011;9469;51.114;13.914;2024-02-21T02:10:20;9.53;;;4.20;;
18677;SDS011;9469;51.114;13.914;2024-02-21T02:15:25;10.97;;;4.60;;
18677;SDS011;9469;51.114;13.914;2024-02-21T02:20:33;12.63;;;4.83;;
18677;SDS011;9469;51.114;13.914;2024-02-21T02:25:41;8.33;;;3.67;;
18677;SDS011;9469;51.114;13.914;2024-02-21T02:30:47;12.27;;;3.93;;
18677;SDS011;9469;51.114;13.914;2024-02-21T02:35:53;12.50;;;4.43;;
18677;SDS011;9469;51.114;13.914;2024-02-21T02:41:03;8.50;;;3.93;;
18677;SDS011;9469;51.114;13.914;2024-02-21T02:46:09;8.47;;;4.03;;
18677;SDS011;9469;51.114;13.914;2024-02-21T02:51:16;13.63;;;4.10;;
18677;SDS011;9469;51.114;13.914;2024-02-21T02:56:24;13.23;;;3.67;;
18677;SDS011;9469;51.114;13.914;2024-02-21T03:01:32;17.50;;;4.20;;
18677;SDS011;9469;51.114;13.914;2024-02-21T03:06:38;13.83;;;4.17;;
18677;SDS011;9469;51.114;13.914;2024-02-21T03:11:46;13.30;;;4.17;;
18677;SDS011;9469;51.114;13.914;2024-02-21T03:16:52;9.17;;;4.23;;
18677;SDS011;9469;51.114;13.914;2024-02-21T03:21:57;14.30;;;4.37;;
18677;SDS011;9469;51.114;13.914;2024-02-21T03:27:05;9.87;;;4.00;;
18677;SDS011;9469;51.114;13.914;2024-02-21T03:32:10;12.77;;;4.40;;
18677;SDS011;9469;51.114;13.914;2024-02-21T03:37:15;10.13;;;3.83;;
18677;SDS011;9469;51.114;13.914;2024-02-21T03:42:23;14.03;;;5.47;;
18677;SDS011;9469;51.114;13.914;2024-02-21T03:47:31;10.90;;;4.77;;
18677;SDS011;9469;51.114;13.914;2024-02-21T03:52:38;9.83;;;4.00;;
18677;SDS011;9469;51.114;13.914;2024-02-21T03:57:49;14.20;;;3.93;;
18677;SDS011;9469;51.114;13.914;2024-02-21T04:02:54;12.87;;;5.43;;
18677;SDS011;9469;51.114;13.914;2024-02-21T04:08:00;13.80;;;5.87;;
18677;SDS011;9469;51.114;13.914;2024-02-21T04:13:12;16.97;;;6.47;;
18677;SDS011;9469;51.114;13.914;2024-02-21T04:18:21;17.07;;;6.27;;
18677;SDS011;9469;51.114;13.914;2024-02-21T04:23:28;15.73;;;5.87;;
18677;SDS011;9469;51.114;13.914;2024-02-21T04:28:35;14.90;;;5.23;;
18677;SDS011;9469;51.114;13.914;2024-02-21T04:33:40;21.03;;;7.30;;
18677;SDS011;9469;51.114;13.914;2024-02-21T04:38:46;21.97;;;7.00;;
18677;SDS011;9469;51.114;13.914;2024-02-21T04:43:54;18.43;;;7.70;;
18677;SDS011;9469;51.114;13.914;2024-02-21T04:49:01;20.43;;;7.43;;
18677;SDS011;9469;51.114;13.914;2024-02-21T04:54:06;23.13;;;8.33;;
18677;SDS011;9469;51.114;13.914;2024-02-21T04:59:15;19.90;;;6.50;;
18677;SDS011;9469;51.114;13.914;2024-02-21T05:04:20;14.03;;;6.67;;
18677;SDS011;9469;51.114;13.914;2024-02-21T05:09:26;17.57;;;6.30;;
18677;SDS011;9469;51.114;13.914;2024-02-21T05:14:34;19.77;;;7.67;;
18677;SDS011;9469;51.114;13.914;2024-02-21T05:19:39;20.73;;;6.83;;
18677;SDS011;9469;51.114;13.914;2024-02-21T05:24:44;20.87;;;7.77;;
18677;SDS011;9469;51.114;13.914;2024-02-21T05:29:54;15.33;;;6.63;;
18677;SDS011;9469;51.114;13.914;2024-02-21T05:35:00;15.53;;;5.57;;
18677;SDS011;9469;51.114;13.914;2024-02-21T05:40:06;15.10;;;7.03;;
18677;SDS011;9469;51.114;13.914;2024-02-21T05:45:16;15.83;;;6.23;;
18677;SDS011;9469;51.114;13.914;2024-02-21T05:50:22;12.53;;;6.30;;
18677;SDS011;9469;51.114;13.914;2024-02-21T05:55:28;16.40;;;7.10;;
18677;SDS011;9469;51.114;13.914;2024-02-21T06:00:36;20.57;;;7.00;;
18677;SDS011;9469;51.114;13.914;2024-02-21T06:05:41;25.97;;;9.60;;
18677;SDS011;9469;51.114;13.914;2024-02-21T06:10:50;23.33;;;9.43;;
18677;SDS011;9469;51.114;13.914;2024-02-21T06:16:00;18.33;;;5.67;;
18677;SDS011;9469;51.114;13.914;2024-02-21T06:21:05;19.70;;;6.50;;
18677;SDS011;9469;51.114;13.914;2024-02-21T06:26:10;15.67;;;6.03;;
18677;SDS011;9469;51.114;13.914;2024-02-21T06:31:18;17.33;;;6.30;;
18677;SDS011;9469;51.114;13.914;2024-02-21T06:36:24;20.23;;;7.10;;
18677;SDS011;9469;51.114;13.914;2024-02-21T06:41:29;15.57;;;6.80;;
18677;SDS011;9469;51.114;13.914;2024-02-21T06:46:41;14.43;;;5.60;;
18677;SDS011;9469;51.114;13.914;2024-02-21T06:51:48;13.20;;;5.53;;
18677;SDS011;9469;51.114;13.914;2024-02-21T06:56:55;14.33;;;6.57;;
18677;SDS011;9469;51.114;13.914;2024-02-21T07:02:03;20.83;;;8.37;;
18677;SDS011;9469;51.114;13.914;2024-02-21T07:07:08;14.60;;;6.37;;
18677;SDS011;9469;51.114;13.914;2024-02-21T07:12:14;16.53;;;5.83;;
18677;SDS011;9469;51.114;13.914;2024-02-21T07:17:22;16.10;;;5.13;;
18677;SDS011;9469;51.114;13.914;2024-02-21T07:22:27;28.23;;;9.90;;
18677;SDS011;9469;51.114;13.914;2024-02-21T07:27:33;14.10;;;5.20;;
18677;SDS011;9469;51.114;13.914;2024-02-21T07:32:41;16.03;;;6.87;;
18677;SDS011;9469;51.114;13.914;2024-02-21T07:37:47;19.97;;;8.37;;
18677;SDS011;9469;51.114;13.914;2024-02-21T07:42:52;10.70;;;5.07;;
18677;SDS011;9469;51.114;13.914;2024-02-21T07:48:01;16.27;;;4.50;;
18677;SDS011;9469;51.114;13.914;2024-02-21T07:53:14;22.77;;;7.80;;
18677;SDS011;9469;51.114;13.914;2024-02-21T07:58:40;22.00;;;9.13;;
18677;SDS011;9469;51.114;13.914;2024-02-21T08:03:48;12.40;;;4.33;;
18677;SDS011;9469;51.114;13.914;2024-02-21T08:08:53;21.23;;;5.63;;
18677;SDS011;9469;51.114;13.914;2024-02-21T08:14:02;8.87;;;4.37;;
18677;SDS011;9469;51.114;13.914;2024-02-21T08:19:10;11.70;;;4.97;;
18677;SDS011;9469;51.114;13.914;2024-02-21T08:24:16;9.40;;;4.13;;
18677;SDS011;9469;51.114;13.914;2024-02-21T08:29:22;9.80;;;4.63;;
18677;SDS011;9469;51.114;13.914;2024-02-21T08:34:30;12.47;;;4.50;;
18677;SDS011;9469;51.114;13.914;2024-02-21T08:39:36;10.93;;;4.53;;
18677;SDS011;9469;51.114;13.914;2024-02-21T08:44:41;11.73;;;4.03;;
18677;SDS011;9469;51.114;13.914;2024-02-21T08:49:49;12.30;;;4.43;;
18677;SDS011;9469;51.114;13.914;2024-02-21T08:54:54;15.07;;;4.27;;
18677;SDS011;9469;51.114;13.914;2024-02-21T09:00:04;10.67;;;4.70;;
18677;SDS011;9469;51.114;13.914;2024-02-21T09:05:17;9.33;;;4.17;;
18677;SDS011;9469;51.114;13.914;2024-02-21T09:10:24;10.13;;;4.40;;
18677;SDS011;9469;51.114;13.914;2024-02-21T09:15:31;13.97;;;4.37;;
18677;SDS011;9469;51.114;13.914;2024-02-21T09:20:39;10.30;;;4.03;;
18677;SDS011;9469;51.114;13.914;2024-02-21T09:25:46;12.23;;;6.50;;
18677;SDS011;9469;51.114;13.914;2024-02-21T09:30:51;12.10;;;4.87;;
18677;SDS011;9469;51.114;13.914;2024-02-21T09:35:59;11.20;;;4.60;;
18677;SDS011;9469;51.114;13.914;2024-02-21T09:41:11;10.80;;;4.67;;
18677;SDS011;9469;51.114;13.914;2024-02-21T09:46:30;13.57;;;4.73;;
18677;SDS011;9469;51.114;13.914;2024-02-21T09:51:48;10.57;;;4.40;;
18677;SDS011;9469;51.114;13.914;2024-02-21T09:56:57;15.13;;;4.80;;
18677;SDS011;9469;51.114;13.914;2024-02-21T10:02:03;9.93;;;4.20;;
18677;SDS011;9469;51.114;13.914;2024-02-21T10:07:12;11.63;;;4.83;;
18677;SDS011;9469;51.114;13.914;2024-02-21T10:12:18;13.00;;;4.30;;
18677;SDS011;9469;51.114;13.914;2024-02-21T10:17:24;10.80;;;5.27;;
18677;SDS011;9469;51.114;13.914;2024-02-21T10:22:34;11.83;;;5.00;;
18677;SDS011;9469;51.114;13.914;2024-02-21T10:27:43;10.67;;;5.03;;
18677;SDS011;9469;51.114;13.914;2024-02-21T10:32:49;8.30;;;4.50;;
18677;SDS011;9469;51.114;13.914;2024-02-21T10:37:58;11.77;;;4.30;;
18677;SDS011;9469;51.114;13.914;2024-02-21T10:43:05;8.37;;;4.10;;
18677;SDS011;9469;51.114;13.914;2024-02-21T10:48:22;11.47;;;4.10;;
18677;SDS011;9469;51.114;13.914;2024-02-21T10:53:41;13.10;;;4.17;;
18677;SDS011;9469;51.114;13.914;2024-02-21T10:58:51;9.73;;;4.20;;
18677;SDS011;9469;51.114;13.914;2024-02-21T11:03:59;10.20;;;3.90;;
18677;SDS011;9469;51.114;13.914;2024-02-21T11:09:11;10.53;;;4.10;;
18677;SDS011;9469;51.114;13.914;2024-02-21T11:14:18;16.47;;;3.87;;
18677;SDS011;9469;51.114;13.914;2024-02-21T11:19:24;10.87;;;4.00;;
18677;SDS011;9469;51.114;13.914;2024-02-21T11:24:34;6.73;;;4.07;;
18677;SDS011;9469;51.114;13.914;2024-02-21T11:29:40;14.93;;;4.17;;
18677;SDS011;9469;51.114;13.914;2024-02-21T11:34:54;9.80;;;3.90;;
18677;SDS011;9469;51.114;13.914;2024-02-21T11:40:07;7.13;;;3.63;;
18677;SDS011;9469;51.114;13.914;2024-02-21T11:45:17;8.47;;;3.20;;
18677;SDS011;9469;51.114;13.914;2024-02-21T11:50:23;7.57;;;3.33;;
18677;SDS011;9469;51.114;13.914;2024-02-21T11:55:34;8.73;;;3.17;;
18677;SDS011;9469;51.114;13.914;2024-02-21T12:00:41;5.17;;;3.03;;
18677;SDS011;9469;51.114;13.914;2024-02-21T12:05:47;6.93;;;2.70;;
18677;SDS011;9469;51.114;13.914;2024-02-21T12:10:55;9.20;;;3.23;;
18677;SDS011;9469;51.114;13.914;2024-02-21T12:16:00;5.53;;;3.03;;
18677;SDS011;9469;51.114;13.914;2024-02-21T12:21:05;6.03;;;3.30;;
18677;SDS011;9469;51.114;13.914;2024-02-21T12:26:13;12.50;;;3.83;;
18677;SDS011;9469;51.114;13.914;2024-02-21T12:31:21;5.87;;;3.03;;
18677;SDS011;9469;51.114;13.914;2024-02-21T12:36:28;4.73;;;3.07;;
18677;SDS011;9469;51.114;13.914;2024-02-21T12:41:36;11.23;;;3.30;;
18677;SDS011;9469;51.114;13.914;2024-02-21T12:46:45;6.40;;;3.50;;
18677;SDS011;9469;51.114;13.914;2024-02-21T12:51:56;4.60;;;2.60;;
18677;SDS011;9469;51.114;13.914;2024-02-21T12:57:07;8.00;;;3.30;;
18677;SDS011;9469;51.114;13.914;2024-02-21T13:02:12;9.50;;;3.90;;
18677;SDS011;9469;51.114;13.914;2024-02-21T13:07:18;7.40;;;3.13;;
18677;SDS011;9469;51.114;13.914;2024-02-21T13:12:32;6.83;;;3.23;;
18677;SDS011;9469;51.114;13.914;2024-02-21T13:17:38;5.33;;;2.90;;
18677;SDS011;9469;51.114;13.914;2024-02-21T13:22:45;7.77;;;3.30;;
18677;SDS011;9469;51.114;13.914;2024-02-21T13:27:53;8.23;;;3.20;;
18677;SDS011;9469;51.114;13.914;2024-02-21T13:32:58;8.80;;;3.30;;
18677;SDS011;9469;51.114;13.914;2024-02-21T13:38:05;8.87;;;3.10;;
18677;SDS011;9469;51.114;13.914;2024-02-21T13:43:14;6.97;;;2.97;;
18677;SDS011;9469;51.114;13.914;2024-02-21T13:48:19;6.77;;;2.80;;
18677;SDS011;9469;51.114;13.914;2024-02-21T13:53:24;9.57;;;3.40;;
18677;SDS011;9469;51.114;13.914;2024-02-21T13:58:33;8.13;;;3.30;;
18677;SDS011;9469;51.114;13.914;2024-02-21T14:03:39;6.93;;;3.43;;
18677;SDS011;9469;51.114;13.914;2024-02-21T14:08:44;7.43;;;2.97;;
18677;SDS011;9469;51.114;13.914;2024-02-21T14:13:52;7.17;;;2.70;;
18677;SDS011;9469;51.114;13.914;2024-02-21T14:18:59;10.53;;;3.40;;
18677;SDS011;9469;51.114;13.914;2024-02-21T14:24:04;6.80;;;3.20;;
18677;SDS011;9469;51.114;13.914;2024-02-21T14:29:13;7.90;;;3.40;;
18677;SDS011;9469;51.114;13.914;2024-02-21T14:34:20;9.73;;;3.70;;
18677;SDS011;9469;51.114;13.914;2024-02-21T14:39:26;7.37;;;3.20;;
18677;SDS011;9469;51.114;13.914;2024-02-21T14:44:33;8.27;;;3.63;;
18677;SDS011;9469;51.114;13.914;2024-02-21T14:49:39;7.00;;;2.90;;
18677;SDS011;9469;51.114;13.914;2024-02-21T14:54:51;6.00;;;2.80;;
18677;SDS011;9469;51.114;13.914;2024-02-21T15:00:01;9.90;;;4.20;;
18677;SDS011;9469;51.114;13.914;2024-02-21T15:05:10;8.20;;;3.67;;
18677;SDS011;9469;51.114;13.914;2024-02-21T15:10:16;6.17;;;3.37;;
18677;SDS011;9469;51.114;13.914;2024-02-21T15:15:24;11.43;;;4.03;;
18677;SDS011;9469;51.114;13.914;2024-02-21T15:20:30;7.07;;;4.20;;
18677;SDS011;9469;51.114;13.914;2024-02-21T15:25:36;9.50;;;3.70;;
18677;SDS011;9469;51.114;13.914;2024-02-21T15:30:44;6.00;;;3.17;;
18677;SDS011;9469;51.114;13.914;2024-02-21T15:35:49;10.63;;;3.60;;
18677;SDS011;9469;51.114;13.914;2024-02-21T15:40:55;9.73;;;4.00;;
18677;SDS011;9469;51.114;13.914;2024-02-21T15:46:03;8.57;;;4.27;;
18677;SDS011;9469;51.114;13.914;2024-02-21T15:51:11;8.23;;;3.60;;
18677;SDS011;9469;51.114;13.914;2024-02-21T15:56:24;7.23;;;3.67;;
18677;SDS011;9469;51.114;13.914;2024-02-21T16:01:34;11.30;;;4.20;;
18677;SDS011;9469;51.114;13.914;2024-02-21T16:06:43;11.83;;;4.70;;
18677;SDS011;9469;51.114;13.914;2024-02-21T16:11:54;11.13;;;4.57;;
18677;SDS011;9469;51.114;13.914;2024-02-21T16:17:03;10.57;;;4.90;;
18677;SDS011;9469;51.114;13.914;2024-02-21T16:22:09;11.23;;;5.70;;
18677;SDS011;9469;51.114;13.914;2024-02-21T16:27:15;10.87;;;5.20;;
18677;SDS011;9469;51.114;13.914;2024-02-21T16:32:23;10.37;;;5.27;;
18677;SDS011;9469;51.114;13.914;2024-02-21T16:37:29;13.97;;;6.20;;
18677;SDS011;9469;51.114;13.914;2024-02-21T16:42:35;10.43;;;5.60;;
18677;SDS011;9469;51.114;13.914;2024-02-21T16:47:42;13.53;;;5.93;;
18677;SDS011;9469;51.114;13.914;2024-02-21T16:52:47;12.50;;;6.97;;
18677;SDS011;9469;51.114;13.914;2024-02-21T16:57:54;13.73;;;7.93;;
18677;SDS011;9469;51.114;13.914;2024-02-21T17:03:02;16.73;;;8.17;;
18677;SDS011;9469;51.114;13.914;2024-02-21T17:08:07;15.50;;;8.10;;
18677;SDS011;9469;51.114;13.914;2024-02-21T17:13:12;23.53;;;13.77;;
18677;SDS011;9469;51.114;13.914;2024-02-21T17:18:20;29.80;;;16.77;;
18677;SDS011;9469;51.114;13.914;2024-02-21T17:23:26;22.10;;;12.60;;
18677;SDS011;9469;51.114;13.914;2024-02-21T17:28:31;18.10;;;8.00;;
18677;SDS011;9469;51.114;13.914;2024-02-21T17:33:40;16.97;;;9.33;;
18677;SDS011;9469;51.114;13.914;2024-02-21T17:38:47;19.57;;;10.67;;
18677;SDS011;9469;51.114;13.914;2024-02-21T17:43:52;17.23;;;9.03;;
18677;SDS011;9469;51.114;13.914;2024-02-21T17:49:00;18.47;;;10.23;;
18677;SDS011;9469;51.114;13.914;2024-02-21T17:54:06;21.63;;;13.20;;
18677;SDS011;9469;51.114;13.914;2024-02-21T17:59:16;18.47;;;9.90;;
18677;SDS011;9469;51.114;13.914;2024-02-21T18:04:26;13.33;;;8.53;;
18677;SDS011;9469;51.114;13.914;2024-02-21T18:09:32;13.70;;;9.17;;
18677;SDS011;9469;51.114;13.914;2024-02-21T18:14:37;17.43;;;10.83;;
18677;SDS011;9469;51.114;13.914;2024-02-21T18:19:45;16.30;;;8.53;;
18677;SDS011;9469;51.114;13.914;2024-02-21T18:24:50;16.43;;;10.97;;
18677;SDS011;9469;51.114;13.914;2024-02-21T18:29:55;16.07;;;9.50;;
18677;SDS011;9469;51.114;13.914;2024-02-21T18:35:03;12.60;;;8.57;;
18677;SDS011;9469;51.114;13.914;2024-02-21T18:40:09;14.73;;;8.37;;
18677;SDS011;9469;51.114;13.914;2024-02-21T18:45:19;30.83;;;15.43;;
18677;SDS011;9469;51.114;13.914;2024-02-21T18:50:27;20.40;;;11.53;;
18677;SDS011;9469;51.114;13.914;2024-02-21T18:55:34;12.47;;;7.17;;
18677;SDS011;9469;51.114;13.914;2024-02-21T19:00:39;12.27;;;7.83;;
18677;SDS011;9469;51.114;13.914;2024-02-21T19:05:48;13.10;;;7.87;;
18677;SDS011;9469;51.114;13.914;2024-02-21T19:10:54;13.60;;;8.80;;
18677;SDS011;9469;51.114;13.914;2024-02-21T19:15:59;14.40;;;8.40;;
18677;SDS011;9469;51.114;13.914;2024-02-21T19:21:07;13.90;;;6.30;;
18677;SDS011;9469;51.114;13.914;2024-02-21T19:26:12;9.53;;;6.20;;
18677;SDS011;9469;51.114;13.914;2024-02-21T19:31:18;13.13;;;7.33;;
18677;SDS011;9469;51.114;13.914;2024-02-21T19:36:26;12.30;;;6.40;;
18677;SDS011;9469;51.114;13.914;2024-02-21T19:41:32;11.27;;;5.60;;
18677;SDS011;9469;51.114;13.914;2024-02-21T19:46:37;8.07;;;5.10;;
18677;SDS011;9469;51.114;13.914;2024-02-21T19:51:48;6.57;;;4.20;;
18677;SDS011;9469;51.114;13.914;2024-02-21T19:56:53;12.73;;;4.30;;
18677;SDS011;9469;51.114;13.914;2024-02-21T20:02:02;8.63;;;4.00;;
18677;SDS011;9469;51.114;13.914;2024-02-21T20:07:10;6.73;;;3.30;;
18677;SDS011;9469;51.114;13.914;2024-02-21T20:12:15;11.00;;;4.97;;
18677;SDS011;9469;51.114;13.914;2024-02-21T20:17:23;8.13;;;4.07;;
18677;SDS011;9469;51.114;13.914;2024-02-21T20:22:32;9.03;;;3.90;;
18677;SDS011;9469;51.114;13.914;2024-02-21T20:27:38;10.33;;;4.73;;
18677;SDS011;9469;51.114;13.914;2024-02-21T20:32:43;14.80;;;4.50;;
18677;SDS011;9469;51.114;13.914;2024-02-21T20:37:55;7.00;;;3.90;;
18677;SDS011;9469;51.114;13.914;2024-02-21T20:43:01;12.30;;;4.73;;
18677;SDS011;9469;51.114;13.914;2024-02-21T20:48:08;6.83;;;3.50;;
18677;SDS011;9469;51.114;13.914;2024-02-21T20:53:16;8.43;;;5.37;;
18677;SDS011;9469;51.114;13.914;2024-02-21T20:58:25;8.73;;;4.40;;
18677;SDS011;9469;51.114;13.914;2024-02-21T21:03:30;5.87;;;3.60;;
18677;SDS011;9469;51.114;13.914;2024-02-21T21:08:38;8.90;;;2.90;;
18677;SDS011;9469;51.114;13.914;2024-02-21T21:13:48;7.60;;;2.40;;
18677;SDS011;9469;51.114;13.914;2024-02-21T21:18:54;7.80;;;3.30;;
18677;SDS011;9469;51.114;13.914;2024-02-21T21:24:02;7.73;;;3.00;;
18677;SDS011;9469;51.114;13.914;2024-02-21T21:29:07;3.83;;;2.70;;
18677;SDS011;9469;51.114;13.914;2024-02-21T21:34:13;6.30;;;3.43;;
18677;SDS011;9469;51.114;13.914;2024-02-21T21:39:21;8.33;;;3.87;;
18677;SDS011;9469;51.114;13.914;2024-02-21T21:44:27;7.80;;;2.83;;
18677;SDS011;9469;51.114;13.914;2024-02-21T21:49:33;5.37;;;3.13;;
18677;SDS011;9469;51.114;13.914;2024-02-21T21:54:41;5.77;;;2.83;;
18677;SDS011;9469;51.114;13.914;2024-02-21T21:59:46;6.73;;;2.97;;
18677;SDS011;9469;51.114;13.914;2024-02-21T22:04:51;6.60;;;3.20;;
18677;SDS011;9469;51.114;13.914;2024-02-21T22:09:59;9.03;;;3.40;;
18677;SDS011;9469;51.114;13.914;2024-02-21T22:15:07;6.47;;;3.40;;
18677;SDS011;9469;51.114;13.914;2024-02-21T22:20:14;6.00;;;3.40;;
18677;SDS011;9469;51.114;13.914;2024-02-21T22:25:27;7.07;;;3.03;;
18677;SDS011;9469;51.114;13.914;2024-02-21T22:30:33;7.93;;;4.20;;
18677;SDS011;9469;51.114;13.914;2024-02-21T22:35:39;5.60;;;2.70;;
18677;SDS011;9469;51.114;13.914;2024-02-21T22:40:48;6.00;;;3.20;;
18677;SDS011;9469;51.114;13.914;2024-02-21T22:45:54;5.30;;;3.03;;
18677;SDS011;9469;51.114;13.914;2024-02-21T22:50:59;6.67;;;3.17;;
18677;SDS011;9469;51.114;13.914;2024-02-21T22:56:07;7.60;;;3.07;;
18677;SDS011;9469;51.114;13.914;2024-02-21T23:01:14;5.63;;;2.90;;
18677;SDS011;9469;51.114;13.914;2024-02-21T23:06:19;8.57;;;2.97;;
18677;SDS011;9469;51.114;13.914;2024-02-21T23:11:27;8.67;;;4.67;;
18677;SDS011;9469;51.114;13.914;2024-02-21T23:16:32;5.60;;;2.73;;
18677;SDS011;9469;51.114;13.914;2024-02-21T23:21:39;4.40;;;2.70;;
18677;SDS011;9469;51.114;13.914;2024-02-21T23:26:50;5.40;;;3.17;;
18677;SDS011;9469;51.114;13.914;2024-02-21T23:31:55;7.33;;;3.00;;
18677;SDS011;9469;51.114;13.914;2024-02-21T23:37:00;5.60;;;2.70;;
18677;SDS011;9469;51.114;13.914;2024-02-21T23:42:08;4.60;;;2.23;;
18677;SDS011;9469;51.114;13.914;2024-02-21T23:47:13;5.07;;;2.37;;
18677;SDS011;9469;51.114;13.914;2024-02-21T23:52:18;4.27;;;2.10;;
18677;SDS011;9469;51.114;13.914;2024-02-21T23:57:26;3.33;;;2.00;;
